createdAt,value
2022-09-02T00:02:23.423Z,17.31
2022-09-02T00:07:25.587Z,17.20
2022-09-02T00:12:27.913Z,17.05
2022-09-02T00:17:30.292Z,17.08
2022-09-02T00:22:32.651Z,16.79
2022-09-02T00:27:34.801Z,16.90
2022-09-02T00:32:37.223Z,16.93
2022-09-02T00:37:39.489Z,17.00
2022-09-02T00:42:41.916Z,17.13
2022-09-02T00:47:50.563Z,17.20
2022-09-02T00:53:05.232Z,17.06
2022-09-02T00:58:17.121Z,17.08
2022-09-02T01:03:22.367Z,16.67
2022-09-02T01:08:27.768Z,17.01
2022-09-02T01:13:35.528Z,16.71
2022-09-02T01:18:39.214Z,16.63
2022-09-02T01:23:41.458Z,16.50
2022-09-02T01:28:45.150Z,16.70
2022-09-02T01:33:47.928Z,16.70
2022-09-02T01:38:50.036Z,16.76
2022-09-02T01:43:52.351Z,16.82
2022-09-02T01:48:55.801Z,16.71
2022-09-02T01:53:58.150Z,16.65
2022-09-02T01:59:02.405Z,16.68
2022-09-02T02:04:11.396Z,16.63
2022-09-02T02:09:19.106Z,16.74
2022-09-02T02:14:22.010Z,16.87
2022-09-02T02:19:25.943Z,16.78
2022-09-02T02:24:28.497Z,16.88
2022-09-02T02:29:30.920Z,17.03
2022-09-02T02:34:35.540Z,17.02
2022-09-02T02:39:42.963Z,16.79
2022-09-02T02:44:46.201Z,17.02
2022-09-02T02:49:48.782Z,16.78
2022-09-02T02:54:52.057Z,16.86
2022-09-02T02:59:55.225Z,16.80
2022-09-02T03:04:57.497Z,16.81
2022-09-02T03:09:59.786Z,17.01
2022-09-02T03:15:03.236Z,16.97
2022-09-02T03:20:07.243Z,16.79
2022-09-02T03:25:15.180Z,16.77
2022-09-02T03:30:27.298Z,17.19
2022-09-02T03:35:32.400Z,17.32
2022-09-02T03:40:35.197Z,17.53
2022-09-02T03:45:40.672Z,17.63
2022-09-02T03:50:47.585Z,17.65
2022-09-02T03:55:55.311Z,17.65
2022-09-02T04:01:01.316Z,17.46
2022-09-02T04:06:03.850Z,17.61
2022-09-02T04:11:09.235Z,17.77
2022-09-02T04:16:18.197Z,17.93
2022-09-02T04:21:21.982Z,18.05
2022-09-02T04:26:24.402Z,18.26
2022-09-02T04:31:31.684Z,18.46
2022-09-02T04:36:35.065Z,18.67
2022-09-02T04:41:42.759Z,18.79
2022-09-02T04:46:48.695Z,18.99
2022-09-02T04:51:55.366Z,19.20
2022-09-02T04:56:59.368Z,19.39
2022-09-02T05:02:04.837Z,19.74
2022-09-02T05:07:07.648Z,19.87
2022-09-02T05:12:16.998Z,19.95
2022-09-02T05:17:25.294Z,20.06
2022-09-02T05:22:29.868Z,20.08
2022-09-02T05:27:35.561Z,20.66
2022-09-02T05:32:38.236Z,21.21
2022-09-02T05:37:41.846Z,21.35
2022-09-02T05:42:45.202Z,21.37
2022-09-02T05:47:51.473Z,21.38
2022-09-02T05:52:53.948Z,21.47
2022-09-02T05:57:58.176Z,22.77
2022-09-02T06:03:00.410Z,23.06
2022-09-02T06:08:08.252Z,23.31
2022-09-02T06:13:11.871Z,23.11
2022-09-02T06:18:14.433Z,23.43
2022-09-02T06:23:21.130Z,23.53
2022-09-02T06:28:24.233Z,23.89
2022-09-02T06:33:27.937Z,23.93
2022-09-02T06:38:30.517Z,24.17
2022-09-02T06:43:39.963Z,25.12
2022-09-02T06:48:58.319Z,25.17
2022-09-02T06:54:11.047Z,24.07
2022-09-02T06:59:19.404Z,23.55
2022-09-02T07:04:43.482Z,24.11
2022-09-02T07:09:50.370Z,24.78
2022-09-02T07:14:54.676Z,25.02
2022-09-02T07:20:07.039Z,27.87
2022-09-02T07:25:18.416Z,28.72
2022-09-02T07:30:21.804Z,28.51
2022-09-02T07:35:30.027Z,28.00
2022-09-02T07:40:33.172Z,27.61
2022-09-02T07:45:36.296Z,26.28
2022-09-02T07:50:39.336Z,26.50
2022-09-02T07:55:46.289Z,25.49
2022-09-02T08:00:50.656Z,25.52
2022-09-02T08:05:53.816Z,26.11
2022-09-02T08:10:56.207Z,26.23
2022-09-02T08:15:58.685Z,25.60
2022-09-02T08:21:00.935Z,25.27
2022-09-02T08:26:04.206Z,24.99
2022-09-02T08:31:07.750Z,25.63
2022-09-02T08:36:12.101Z,25.57
2022-09-02T08:41:25.301Z,25.96
2022-09-02T08:46:31.778Z,25.56
2022-09-02T08:51:51.514Z,25.66
2022-09-02T08:56:56.944Z,25.56
2022-09-02T09:02:16.758Z,25.92
2022-09-02T09:13:01.955Z,26.05
2022-09-02T09:18:09.670Z,25.91
2022-09-02T09:23:34.806Z,26.53
2022-09-02T09:28:48.631Z,26.22
2022-09-02T09:34:04.125Z,26.68
2022-09-02T09:39:35.921Z,25.63
2022-09-02T09:44:49.412Z,24.97
2022-09-02T09:50:16.327Z,23.72
2022-09-02T09:55:24.983Z,23.03
2022-09-02T10:00:34.597Z,22.61
2022-09-02T10:05:40.757Z,21.53
2022-09-02T10:11:06.729Z,20.27
2022-09-02T10:16:11.959Z,20.01
2022-09-02T10:21:39.846Z,20.44
2022-09-02T10:26:54.125Z,20.87
2022-09-02T10:32:14.803Z,21.28
2022-09-02T10:37:58.992Z,22.12
2022-09-02T10:43:06.538Z,23.43
2022-09-02T10:48:21.743Z,23.83
2022-09-02T10:53:37.124Z,23.96
2022-09-02T10:58:57.389Z,23.88
2022-09-02T11:04:02.764Z,23.79
2022-09-02T11:09:15.160Z,23.96
2022-09-02T11:14:27.418Z,24.10
2022-09-02T11:19:35.137Z,24.37
2022-09-02T11:24:46.457Z,25.55
2022-09-02T11:30:02.669Z,25.57
2022-09-02T11:35:09.767Z,26.37
2022-09-02T11:40:34.365Z,26.43
2022-09-02T11:45:44.035Z,26.06
2022-09-02T11:51:06.533Z,25.12
2022-09-02T11:56:12.282Z,23.99
2022-09-02T12:01:44.035Z,22.88
2022-09-02T12:07:09.657Z,22.13
2022-09-02T12:12:37.616Z,21.26
2022-09-02T12:17:45.793Z,19.61
2022-09-02T12:22:48.130Z,18.77
2022-09-02T12:27:50.578Z,18.83
2022-09-02T12:32:52.705Z,18.90
2022-09-02T12:37:57.463Z,18.94
2022-09-02T12:43:03.813Z,19.34
2022-09-02T12:48:17.654Z,19.78
2022-09-02T12:53:32.836Z,19.89
2022-09-02T12:58:43.166Z,20.18
2022-09-02T13:04:06.220Z,20.68
2022-09-02T13:09:26.783Z,21.19
2022-09-02T13:14:31.828Z,21.55
2022-09-02T13:20:23.553Z,22.04
2022-09-02T13:25:51.251Z,22.33
2022-09-02T13:31:22.436Z,22.22
2022-09-02T13:36:36.226Z,22.02
2022-09-02T13:41:38.826Z,22.34
2022-09-02T13:46:50.482Z,22.60
2022-09-02T13:51:55.503Z,22.52
2022-09-02T13:57:00.518Z,22.39
2022-09-02T14:02:31.902Z,22.66
2022-09-02T14:07:41.379Z,22.31
2022-09-02T14:12:45.010Z,22.33
2022-09-02T14:18:10.002Z,22.50
2022-09-02T14:23:17.423Z,22.30
2022-09-02T14:28:23.049Z,22.31
2022-09-02T14:33:39.651Z,22.29
2022-09-02T14:38:47.915Z,22.20
2022-09-02T14:44:12.064Z,21.97
2022-09-02T14:49:28.004Z,21.82
2022-09-02T14:54:51.422Z,21.85
2022-09-02T14:59:53.909Z,21.92
2022-09-02T15:04:59.432Z,21.89
2022-09-02T15:10:02.259Z,21.66
2022-09-02T15:15:04.953Z,21.73
2022-09-02T15:20:11.130Z,21.62
2022-09-02T15:25:13.611Z,21.84
2022-09-02T15:30:17.827Z,21.75
2022-09-02T15:35:20.189Z,22.13
2022-09-02T15:40:22.478Z,22.10
2022-09-02T15:45:25.067Z,22.21
2022-09-02T15:50:31.588Z,21.81
2022-09-02T15:55:34.670Z,21.49
2022-09-02T16:00:39.722Z,21.90
2022-09-02T16:05:43.442Z,21.55
2022-09-02T16:10:45.567Z,21.46
2022-09-02T16:15:48.446Z,21.45
2022-09-02T16:20:53.608Z,21.46
2022-09-02T16:26:16.843Z,21.57
2022-09-02T16:31:21.522Z,21.16
2022-09-02T16:36:25.124Z,21.02
2022-09-02T16:41:37.050Z,20.76
2022-09-02T16:46:43.041Z,20.81
2022-09-02T16:51:58.135Z,20.74
2022-09-02T16:57:01.502Z,20.80
2022-09-02T17:02:03.959Z,20.72
2022-09-02T17:07:06.316Z,20.56
2022-09-02T17:12:08.538Z,20.64
2022-09-02T17:17:15.156Z,20.67
2022-09-02T17:22:17.537Z,20.17
2022-09-02T17:27:19.899Z,20.53
2022-09-02T17:32:22.318Z,20.64
2022-09-02T17:37:26.854Z,20.73
2022-09-02T17:42:29.165Z,20.63
2022-09-02T17:47:31.971Z,20.65
2022-09-02T17:52:34.276Z,20.83
2022-09-02T17:58:04.119Z,20.98
2022-09-02T18:03:22.626Z,21.21
2022-09-02T18:08:40.212Z,21.12
2022-09-02T18:13:54.861Z,20.91
2022-09-02T18:19:25.605Z,20.97
2022-09-02T18:24:31.514Z,21.04
2022-09-02T18:29:45.908Z,20.79
2022-09-02T18:35:06.176Z,20.64
2022-09-02T18:40:29.808Z,20.56
2022-09-02T18:45:54.976Z,20.33
2022-09-02T18:51:03.014Z,20.65
2022-09-02T18:56:12.266Z,20.34
2022-09-02T19:01:23.997Z,20.46
2022-09-02T19:06:31.105Z,20.64
2022-09-02T19:11:37.849Z,21.01
2022-09-02T19:16:40.244Z,20.79
2022-09-02T19:21:49.570Z,20.51
2022-09-02T19:26:59.798Z,20.46
2022-09-02T19:32:02.526Z,20.70
2022-09-02T19:37:06.320Z,20.64
2022-09-02T19:42:11.493Z,20.57
2022-09-02T19:52:43.214Z,20.24
2022-09-02T19:57:46.319Z,20.39
2022-09-02T20:02:50.100Z,20.24
2022-09-02T20:07:54.043Z,19.95
2022-09-02T20:12:56.622Z,19.75
2022-09-02T20:18:09.338Z,20.31
2022-09-02T20:23:17.020Z,20.32
2022-09-02T20:28:25.974Z,20.77
2022-09-02T20:33:39.155Z,20.94
2022-09-02T20:39:04.095Z,20.79
2022-09-02T20:44:28.944Z,20.95
2022-09-02T20:49:48.005Z,21.26
2022-09-02T20:55:12.582Z,20.89
2022-09-02T21:00:19.899Z,20.83
2022-09-02T21:05:41.627Z,20.72
2022-09-02T21:10:52.394Z,20.71
2022-09-02T21:15:56.868Z,20.75
2022-09-02T21:21:10.823Z,20.25
2022-09-02T21:26:30.646Z,20.02
2022-09-02T21:32:13.355Z,19.88
2022-09-02T21:37:18.221Z,19.74
2022-09-02T21:42:58.755Z,19.79
2022-09-02T21:48:32.494Z,19.93
2022-09-02T21:53:48.811Z,19.70
2022-09-02T21:59:14.090Z,19.75
2022-09-02T22:04:32.784Z,19.77
2022-09-02T22:09:35.138Z,19.89
2022-09-02T22:14:59.601Z,19.20
2022-09-02T22:20:05.562Z,18.98
2022-09-02T22:25:27.928Z,19.20
2022-09-02T22:30:33.530Z,18.95
2022-09-02T22:35:54.502Z,19.27
2022-09-02T22:41:01.105Z,19.22
2022-09-02T22:46:35.567Z,18.97
2022-09-02T22:52:11.502Z,19.16
2022-09-02T22:57:50.086Z,19.12
2022-09-02T23:03:04.550Z,19.34
2022-09-02T23:08:08.317Z,19.06
2022-09-02T23:13:24.424Z,19.17
2022-09-02T23:18:47.462Z,19.38
2022-09-02T23:24:28.561Z,19.41
2022-09-02T23:29:34.310Z,19.26
2022-09-02T23:35:02.785Z,19.24
2022-09-02T23:40:26.870Z,19.17
2022-09-02T23:45:34.914Z,19.20
2022-09-02T23:50:48.197Z,19.37
2022-09-02T23:56:34.069Z,19.36
